sensor_id;sensor_type;location;lat;lon;timestamp;P1;durP1;ratioP1;P2;durP2;ratioP2
48423;SDS011;34232;42.502;26.014;2023-09-19T00:00:20;2.25;;;1.88;;
48423;SDS011;34232;42.502;26.014;2023-09-19T00:02:52;2.65;;;1.77;;
48423;SDS011;34232;42.502;26.014;2023-09-19T00:12:12;4.47;;;1.88;;
48423;SDS011;34232;42.502;26.014;2023-09-19T00:15:41;1.70;;;1.35;;
48423;SDS011;34232;42.502;26.014;2023-09-19T00:18:42;1.95;;;1.52;;
48423;SDS011;34232;42.502;26.014;2023-09-19T00:21:33;5.07;;;2.15;;
48423;SDS011;34232;42.502;26.014;2023-09-19T00:30:45;3.78;;;1.83;;
48423;SDS011;34232;42.502;26.014;2023-09-19T00:33:17;3.60;;;1.80;;
48423;SDS011;34232;42.502;26.014;2023-09-19T00:35:50;2.92;;;2.20;;
48423;SDS011;34232;42.502;26.014;2023-09-19T00:38:17;2.53;;;2.00;;
48423;SDS011;34232;42.502;26.014;2023-09-19T00:43:56;1.73;;;1.50;;
48423;SDS011;34232;42.502;26.014;2023-09-19T00:46:22;2.30;;;1.53;;
48423;SDS011;34232;42.502;26.014;2023-09-19T00:48:47;4.50;;;2.03;;
48423;SDS011;34232;42.502;26.014;2023-09-19T01:04:16;2.50;;;2.03;;
48423;SDS011;34232;42.502;26.014;2023-09-19T01:06:43;1.73;;;1.63;;
48423;SDS011;34232;42.502;26.014;2023-09-19T01:09:10;2.45;;;1.88;;
48423;SDS011;34232;42.502;26.014;2023-09-19T01:11:37;1.60;;;1.30;;
48423;SDS011;34232;42.502;26.014;2023-09-19T01:25:28;3.15;;;2.13;;
48423;SDS011;34232;42.502;26.014;2023-09-19T01:31:01;2.55;;;2.05;;
48423;SDS011;34232;42.502;26.014;2023-09-19T01:36:17;3.30;;;2.13;;
48423;SDS011;34232;42.502;26.014;2023-09-19T01:38:42;4.40;;;2.27;;
48423;SDS011;34232;42.502;26.014;2023-09-19T01:41:10;2.07;;;1.90;;
48423;SDS011;34232;42.502;26.014;2023-09-19T01:43:41;5.55;;;2.60;;
48423;SDS011;34232;42.502;26.014;2023-09-19T01:46:14;2.92;;;2.20;;
48423;SDS011;34232;42.502;26.014;2023-09-19T01:49:12;3.40;;;2.03;;
48423;SDS011;34232;42.502;26.014;2023-09-19T01:51:56;4.18;;;2.55;;
48423;SDS011;34232;42.502;26.014;2023-09-19T01:54:28;6.22;;;2.30;;
48423;SDS011;34232;42.502;26.014;2023-09-19T01:56:59;5.22;;;2.83;;
48423;SDS011;34232;42.502;26.014;2023-09-19T01:59:36;2.55;;;2.35;;
48423;SDS011;34232;42.502;26.014;2023-09-19T02:02:07;2.13;;;1.65;;
48423;SDS011;34232;42.502;26.014;2023-09-19T02:04:42;2.42;;;2.22;;
48423;SDS011;34232;42.502;26.014;2023-09-19T02:11:26;2.20;;;1.77;;
48423;SDS011;34232;42.502;26.014;2023-09-19T02:14:16;4.28;;;2.80;;
48423;SDS011;34232;42.502;26.014;2023-09-19T02:17:03;1.70;;;1.60;;
48423;SDS011;34232;42.502;26.014;2023-09-19T02:20:28;2.08;;;1.88;;
48423;SDS011;34232;42.502;26.014;2023-09-19T02:22:54;3.97;;;2.20;;
48423;SDS011;34232;42.502;26.014;2023-09-19T02:25:20;4.00;;;2.50;;
48423;SDS011;34232;42.502;26.014;2023-09-19T02:27:46;3.15;;;1.67;;
48423;SDS011;34232;42.502;26.014;2023-09-19T02:30:12;2.43;;;2.23;;
48423;SDS011;34232;42.502;26.014;2023-09-19T02:32:45;3.50;;;2.80;;
48423;SDS011;34232;42.502;26.014;2023-09-19T02:35:11;2.75;;;2.33;;
48423;SDS011;34232;42.502;26.014;2023-09-19T02:37:37;3.67;;;2.40;;
48423;SDS011;34232;42.502;26.014;2023-09-19T02:40:03;2.63;;;2.37;;
48423;SDS011;34232;42.502;26.014;2023-09-19T02:42:43;2.20;;;1.80;;
48423;SDS011;34232;42.502;26.014;2023-09-19T02:45:29;2.55;;;1.80;;
48423;SDS011;34232;42.502;26.014;2023-09-19T02:47:55;4.55;;;1.98;;
48423;SDS011;34232;42.502;26.014;2023-09-19T02:50:22;2.75;;;2.13;;
48423;SDS011;34232;42.502;26.014;2023-09-19T02:52:49;3.03;;;2.65;;
48423;SDS011;34232;42.502;26.014;2023-09-19T03:01:44;4.45;;;2.42;;
48423;SDS011;34232;42.502;26.014;2023-09-19T03:05:04;1.95;;;1.77;;
48423;SDS011;34232;42.502;26.014;2023-09-19T03:07:31;4.10;;;2.38;;
48423;SDS011;34232;42.502;26.014;2023-09-19T03:12:51;5.72;;;2.53;;
48423;SDS011;34232;42.502;26.014;2023-09-19T03:15:22;2.60;;;2.40;;
48423;SDS011;34232;42.502;26.014;2023-09-19T03:18:16;2.67;;;2.08;;
48423;SDS011;34232;42.502;26.014;2023-09-19T03:20:42;2.58;;;2.03;;
48423;SDS011;34232;42.502;26.014;2023-09-19T03:23:09;5.63;;;2.70;;
48423;SDS011;34232;42.502;26.014;2023-09-19T03:28:42;3.20;;;2.90;;
48423;SDS011;34232;42.502;26.014;2023-09-19T03:31:08;3.95;;;2.45;;
48423;SDS011;34232;42.502;26.014;2023-09-19T03:33:34;5.20;;;3.13;;
48423;SDS011;34232;42.502;26.014;2023-09-19T03:36:22;5.10;;;3.17;;
48423;SDS011;34232;42.502;26.014;2023-09-19T03:38:47;3.10;;;2.60;;
48423;SDS011;34232;42.502;26.014;2023-09-19T03:41:16;3.95;;;2.40;;
48423;SDS011;34232;42.502;26.014;2023-09-19T03:44:25;4.05;;;3.10;;
48423;SDS011;34232;42.502;26.014;2023-09-19T03:47:52;2.85;;;2.35;;
48423;SDS011;34232;42.502;26.014;2023-09-19T03:50:43;5.60;;;3.08;;
48423;SDS011;34232;42.502;26.014;2023-09-19T03:53:09;4.32;;;2.90;;
48423;SDS011;34232;42.502;26.014;2023-09-19T03:58:22;4.78;;;2.92;;
48423;SDS011;34232;42.502;26.014;2023-09-19T04:04:30;5.50;;;3.47;;
48423;SDS011;34232;42.502;26.014;2023-09-19T04:07:05;5.57;;;3.70;;
48423;SDS011;34232;42.502;26.014;2023-09-19T04:10:05;5.97;;;4.13;;
48423;SDS011;34232;42.502;26.014;2023-09-19T04:12:31;8.63;;;4.28;;
48423;SDS011;34232;42.502;26.014;2023-09-19T04:14:57;5.90;;;4.15;;
48423;SDS011;34232;42.502;26.014;2023-09-19T04:17:24;8.33;;;4.53;;
48423;SDS011;34232;42.502;26.014;2023-09-19T04:19:50;9.80;;;4.82;;
48423;SDS011;34232;42.502;26.014;2023-09-19T04:22:15;9.23;;;5.83;;
48423;SDS011;34232;42.502;26.014;2023-09-19T04:24:41;6.70;;;4.10;;
48423;SDS011;34232;42.502;26.014;2023-09-19T04:27:26;8.00;;;3.88;;
48423;SDS011;34232;42.502;26.014;2023-09-19T04:30:00;8.70;;;4.95;;
48423;SDS011;34232;42.502;26.014;2023-09-19T04:32:50;5.60;;;3.22;;
48423;SDS011;34232;42.502;26.014;2023-09-19T04:35:20;5.68;;;3.10;;
48423;SDS011;34232;42.502;26.014;2023-09-19T04:38:47;8.77;;;3.50;;
48423;SDS011;34232;42.502;26.014;2023-09-19T04:42:25;3.08;;;2.75;;
48423;SDS011;34232;42.502;26.014;2023-09-19T04:45:50;3.53;;;2.42;;
48423;SDS011;34232;42.502;26.014;2023-09-19T04:49:10;5.68;;;3.10;;
48423;SDS011;34232;42.502;26.014;2023-09-19T04:52:01;3.85;;;2.65;;
48423;SDS011;34232;42.502;26.014;2023-09-19T04:55:28;3.97;;;2.50;;
48423;SDS011;34232;42.502;26.014;2023-09-19T04:57:56;5.82;;;3.53;;
48423;SDS011;34232;42.502;26.014;2023-09-19T05:00:21;6.67;;;4.23;;
48423;SDS011;34232;42.502;26.014;2023-09-19T05:03:00;9.90;;;3.15;;
48423;SDS011;34232;42.502;26.014;2023-09-19T05:05:33;15.38;;;4.70;;
48423;SDS011;34232;42.502;26.014;2023-09-19T05:08:06;12.38;;;4.47;;
48423;SDS011;34232;42.502;26.014;2023-09-19T05:10:52;14.45;;;4.18;;
48423;SDS011;34232;42.502;26.014;2023-09-19T05:13:21;10.75;;;5.22;;
48423;SDS011;34232;42.502;26.014;2023-09-19T05:15:51;11.27;;;3.90;;
48423;SDS011;34232;42.502;26.014;2023-09-19T05:21:45;5.55;;;3.75;;
48423;SDS011;34232;42.502;26.014;2023-09-19T05:27:04;6.97;;;4.03;;
48423;SDS011;34232;42.502;26.014;2023-09-19T05:29:50;10.07;;;4.55;;
48423;SDS011;34232;42.502;26.014;2023-09-19T05:32:19;11.68;;;3.60;;
48423;SDS011;34232;42.502;26.014;2023-09-19T05:34:45;8.80;;;3.92;;
48423;SDS011;34232;42.502;26.014;2023-09-19T05:40:34;4.43;;;3.05;;
48423;SDS011;34232;42.502;26.014;2023-09-19T05:43:20;4.90;;;3.35;;
48423;SDS011;34232;42.502;26.014;2023-09-19T05:49:12;3.78;;;3.40;;
48423;SDS011;34232;42.502;26.014;2023-09-19T05:52:29;4.75;;;3.13;;
48423;SDS011;34232;42.502;26.014;2023-09-19T05:58:21;3.45;;;2.13;;
48423;SDS011;34232;42.502;26.014;2023-09-19T06:01:32;5.97;;;2.15;;
48423;SDS011;34232;42.502;26.014;2023-09-19T06:04:56;6.00;;;3.33;;
48423;SDS011;34232;42.502;26.014;2023-09-19T06:07:43;3.50;;;2.33;;
48423;SDS011;34232;42.502;26.014;2023-09-19T06:13:30;3.83;;;2.17;;
48423;SDS011;34232;42.502;26.014;2023-09-19T06:16:37;5.32;;;3.55;;
48423;SDS011;34232;42.502;26.014;2023-09-19T06:20:08;6.88;;;4.45;;
48423;SDS011;34232;42.502;26.014;2023-09-19T06:22:54;3.50;;;2.58;;
48423;SDS011;34232;42.502;26.014;2023-09-19T06:25:27;3.60;;;2.30;;
48423;SDS011;34232;42.502;26.014;2023-09-19T06:28:35;2.22;;;1.95;;
48423;SDS011;34232;42.502;26.014;2023-09-19T06:31:39;2.63;;;2.03;;
48423;SDS011;34232;42.502;26.014;2023-09-19T06:34:51;2.17;;;1.98;;
48423;SDS011;34232;42.502;26.014;2023-09-19T06:37:29;3.30;;;2.30;;
48423;SDS011;34232;42.502;26.014;2023-09-19T06:40:18;4.45;;;1.88;;
48423;SDS011;34232;42.502;26.014;2023-09-19T06:42:51;3.47;;;1.98;;
48423;SDS011;34232;42.502;26.014;2023-09-19T06:49:03;2.55;;;2.03;;
48423;SDS011;34232;42.502;26.014;2023-09-19T06:51:31;2.58;;;1.35;;
48423;SDS011;34232;42.502;26.014;2023-09-19T06:53:57;3.83;;;1.60;;
48423;SDS011;34232;42.502;26.014;2023-09-19T07:00:49;1.42;;;1.20;;
48423;SDS011;34232;42.502;26.014;2023-09-19T07:03:17;1.38;;;1.27;;
48423;SDS011;34232;42.502;26.014;2023-09-19T07:05:47;2.25;;;1.90;;
48423;SDS011;34232;42.502;26.014;2023-09-19T07:08:13;1.90;;;1.77;;
48423;SDS011;34232;42.502;26.014;2023-09-19T07:10:39;2.92;;;1.70;;
48423;SDS011;34232;42.502;26.014;2023-09-19T07:13:13;4.03;;;2.00;;
48423;SDS011;34232;42.502;26.014;2023-09-19T07:15:41;2.10;;;1.42;;
48423;SDS011;34232;42.502;26.014;2023-09-19T07:18:11;1.52;;;1.42;;
48423;SDS011;34232;42.502;26.014;2023-09-19T07:30:46;2.97;;;1.15;;
48423;SDS011;34232;42.502;26.014;2023-09-19T07:33:12;1.58;;;0.85;;
48423;SDS011;34232;42.502;26.014;2023-09-19T07:35:49;2.92;;;1.10;;
48423;SDS011;34232;42.502;26.014;2023-09-19T07:38:54;1.00;;;0.90;;
48423;SDS011;34232;42.502;26.014;2023-09-19T07:41:23;2.72;;;0.93;;
48423;SDS011;34232;42.502;26.014;2023-09-19T07:43:49;1.83;;;1.35;;
48423;SDS011;34232;42.502;26.014;2023-09-19T07:46:34;1.02;;;0.80;;
48423;SDS011;34232;42.502;26.014;2023-09-19T07:49:01;1.33;;;0.95;;
48423;SDS011;34232;42.502;26.014;2023-09-19T07:51:46;0.65;;;0.65;;
48423;SDS011;34232;42.502;26.014;2023-09-19T07:54:53;1.38;;;0.80;;
48423;SDS011;34232;42.502;26.014;2023-09-19T07:57:19;2.13;;;0.98;;
48423;SDS011;34232;42.502;26.014;2023-09-19T08:03:07;2.63;;;1.27;;
48423;SDS011;34232;42.502;26.014;2023-09-19T08:06:20;0.68;;;0.65;;
48423;SDS011;34232;42.502;26.014;2023-09-19T08:08:45;2.20;;;0.80;;
48423;SDS011;34232;42.502;26.014;2023-09-19T08:11:34;5.82;;;1.65;;
48423;SDS011;34232;42.502;26.014;2023-09-19T08:14:02;4.03;;;1.85;;
48423;SDS011;34232;42.502;26.014;2023-09-19T08:33:58;4.25;;;1.17;;
48423;SDS011;34232;42.502;26.014;2023-09-19T08:36:24;1.70;;;1.48;;
48423;SDS011;34232;42.502;26.014;2023-09-19T08:39:10;1.88;;;0.95;;
48423;SDS011;34232;42.502;26.014;2023-09-19T08:41:36;1.23;;;0.82;;
48423;SDS011;34232;42.502;26.014;2023-09-19T08:44:05;2.40;;;1.27;;
48423;SDS011;34232;42.502;26.014;2023-09-19T08:46:31;1.10;;;0.93;;
48423;SDS011;34232;42.502;26.014;2023-09-19T08:59:08;0.90;;;0.70;;
48423;SDS011;34232;42.502;26.014;2023-09-19T09:01:36;2.47;;;1.20;;
48423;SDS011;34232;42.502;26.014;2023-09-19T09:04:23;2.80;;;1.10;;
48423;SDS011;34232;42.502;26.014;2023-09-19T09:07:10;1.37;;;0.90;;
48423;SDS011;34232;42.502;26.014;2023-09-19T09:29:55;2.58;;;0.70;;
48423;SDS011;34232;42.502;26.014;2023-09-19T09:34:59;0.82;;;0.77;;
48423;SDS011;34232;42.502;26.014;2023-09-19T09:40:45;0.68;;;0.65;;
48423;SDS011;34232;42.502;26.014;2023-09-19T09:58:28;1.08;;;0.80;;
48423;SDS011;34232;42.502;26.014;2023-09-19T10:00:57;1.85;;;0.50;;
48423;SDS011;34232;42.502;26.014;2023-09-19T10:03:44;3.72;;;1.17;;
48423;SDS011;34232;42.502;26.014;2023-09-19T10:09:46;1.10;;;0.85;;
48423;SDS011;34232;42.502;26.014;2023-09-19T10:12:13;2.88;;;1.00;;
48423;SDS011;34232;42.502;26.014;2023-09-19T10:24:46;2.15;;;0.80;;
48423;SDS011;34232;42.502;26.014;2023-09-19T10:27:17;0.60;;;0.45;;
48423;SDS011;34232;42.502;26.014;2023-09-19T10:29:44;1.35;;;0.85;;
48423;SDS011;34232;42.502;26.014;2023-09-19T10:32:15;1.17;;;0.77;;
48423;SDS011;34232;42.502;26.014;2023-09-19T10:45:10;2.15;;;0.60;;
48423;SDS011;34232;42.502;26.014;2023-09-19T10:47:39;2.17;;;0.40;;
48423;SDS011;34232;42.502;26.014;2023-09-19T10:52:31;2.58;;;0.57;;
48423;SDS011;34232;42.502;26.014;2023-09-19T10:55:04;1.17;;;0.68;;
48423;SDS011;34232;42.502;26.014;2023-09-19T10:57:31;1.23;;;0.55;;
48423;SDS011;34232;42.502;26.014;2023-09-19T11:38:58;1.95;;;1.23;;
48423;SDS011;34232;42.502;26.014;2023-09-19T11:48:25;2.03;;;0.68;;
48423;SDS011;34232;42.502;26.014;2023-09-19T11:50:52;0.60;;;0.60;;
48423;SDS011;34232;42.502;26.014;2023-09-19T11:53:38;4.47;;;1.02;;
48423;SDS011;34232;42.502;26.014;2023-09-19T11:56:21;1.23;;;0.45;;
48423;SDS011;34232;42.502;26.014;2023-09-19T11:59:29;1.60;;;0.63;;
48423;SDS011;34232;42.502;26.014;2023-09-19T12:01:56;0.70;;;0.70;;
48423;SDS011;34232;42.502;26.014;2023-09-19T12:07:22;0.82;;;0.82;;
48423;SDS011;34232;42.502;26.014;2023-09-19T12:10:07;0.80;;;0.65;;
48423;SDS011;34232;42.502;26.014;2023-09-19T12:12:53;1.35;;;0.90;;
48423;SDS011;34232;42.502;26.014;2023-09-19T12:15:24;2.53;;;0.85;;
48423;SDS011;34232;42.502;26.014;2023-09-19T12:18:29;2.22;;;0.60;;
48423;SDS011;34232;42.502;26.014;2023-09-19T12:21:32;0.88;;;0.77;;
48423;SDS011;34232;42.502;26.014;2023-09-19T12:25:05;2.42;;;0.68;;
48423;SDS011;34232;42.502;26.014;2023-09-19T12:27:40;1.40;;;0.98;;
48423;SDS011;34232;42.502;26.014;2023-09-19T12:30:40;2.00;;;0.65;;
48423;SDS011;34232;42.502;26.014;2023-09-19T12:33:46;1.63;;;0.90;;
48423;SDS011;34232;42.502;26.014;2023-09-19T12:39:26;1.75;;;0.68;;
48423;SDS011;34232;42.502;26.014;2023-09-19T12:42:32;2.17;;;1.02;;
48423;SDS011;34232;42.502;26.014;2023-09-19T12:45:03;1.48;;;0.60;;
48423;SDS011;34232;42.502;26.014;2023-09-19T12:51:05;3.20;;;0.90;;
48423;SDS011;34232;42.502;26.014;2023-09-19T12:53:37;2.17;;;0.82;;
48423;SDS011;34232;42.502;26.014;2023-09-19T13:00:13;2.65;;;1.38;;
48423;SDS011;34232;42.502;26.014;2023-09-19T13:06:35;2.30;;;1.17;;
48423;SDS011;34232;42.502;26.014;2023-09-19T13:22:39;0.70;;;0.70;;
48423;SDS011;34232;42.502;26.014;2023-09-19T13:25:10;1.17;;;1.05;;
48423;SDS011;34232;42.502;26.014;2023-09-19T13:28:00;1.33;;;0.63;;
48423;SDS011;34232;42.502;26.014;2023-09-19T13:30:37;3.85;;;0.70;;
48423;SDS011;34232;42.502;26.014;2023-09-19T13:33:10;4.60;;;0.63;;
48423;SDS011;34232;42.502;26.014;2023-09-19T13:35:40;1.38;;;0.60;;
48423;SDS011;34232;42.502;26.014;2023-09-19T13:45:22;1.27;;;1.15;;
48423;SDS011;34232;42.502;26.014;2023-09-19T13:47:49;1.48;;;0.95;;
48423;SDS011;34232;42.502;26.014;2023-09-19T13:50:20;0.52;;;0.52;;
48423;SDS011;34232;42.502;26.014;2023-09-19T14:07:38;3.50;;;1.30;;
48423;SDS011;34232;42.502;26.014;2023-09-19T14:10:39;1.67;;;0.90;;
48423;SDS011;34232;42.502;26.014;2023-09-19T14:13:04;0.93;;;0.50;;
48423;SDS011;34232;42.502;26.014;2023-09-19T14:15:31;2.67;;;0.85;;
48423;SDS011;34232;42.502;26.014;2023-09-19T14:17:57;2.00;;;0.85;;
48423;SDS011;34232;42.502;26.014;2023-09-19T14:20:24;2.92;;;1.00;;
48423;SDS011;34232;42.502;26.014;2023-09-19T14:22:51;1.77;;;0.82;;
48423;SDS011;34232;42.502;26.014;2023-09-19T14:25:17;1.70;;;1.50;;
48423;SDS011;34232;42.502;26.014;2023-09-19T14:27:43;2.47;;;1.02;;
48423;SDS011;34232;42.502;26.014;2023-09-19T14:30:10;4.13;;;0.82;;
48423;SDS011;34232;42.502;26.014;2023-09-19T14:32:56;0.70;;;0.40;;
48423;SDS011;34232;42.502;26.014;2023-09-19T14:35:42;3.70;;;0.80;;
48423;SDS011;34232;42.502;26.014;2023-09-19T14:38:31;1.00;;;0.60;;
48423;SDS011;34232;42.502;26.014;2023-09-19T14:40:59;3.60;;;0.90;;
48423;SDS011;34232;42.502;26.014;2023-09-19T14:43:25;4.93;;;0.93;;
48423;SDS011;34232;42.502;26.014;2023-09-19T14:49:12;0.93;;;0.70;;
48423;SDS011;34232;42.502;26.014;2023-09-19T14:52:02;1.15;;;0.80;;
48423;SDS011;34232;42.502;26.014;2023-09-19T14:54:29;10.50;;;2.65;;
48423;SDS011;34232;42.502;26.014;2023-09-19T14:57:14;3.53;;;1.13;;
48423;SDS011;34232;42.502;26.014;2023-09-19T15:00:22;2.65;;;0.80;;
48423;SDS011;34232;42.502;26.014;2023-09-19T15:03:30;3.65;;;1.58;;
48423;SDS011;34232;42.502;26.014;2023-09-19T15:06:09;5.53;;;2.65;;
48423;SDS011;34232;42.502;26.014;2023-09-19T15:08:45;2.80;;;2.07;;
48423;SDS011;34232;42.502;26.014;2023-09-19T15:11:12;2.75;;;1.20;;
48423;SDS011;34232;42.502;26.014;2023-09-19T15:13:42;11.45;;;5.15;;
48423;SDS011;34232;42.502;26.014;2023-09-19T15:16:09;9.80;;;4.63;;
48423;SDS011;34232;42.502;26.014;2023-09-19T15:18:36;4.63;;;2.55;;
48423;SDS011;34232;42.502;26.014;2023-09-19T15:21:08;3.42;;;1.65;;
48423;SDS011;34232;42.502;26.014;2023-09-19T15:37:42;4.43;;;1.00;;
48423;SDS011;34232;42.502;26.014;2023-09-19T15:40:07;2.35;;;1.42;;
48423;SDS011;34232;42.502;26.014;2023-09-19T15:42:35;2.88;;;1.20;;
48423;SDS011;34232;42.502;26.014;2023-09-19T15:45:02;1.77;;;1.20;;
48423;SDS011;34232;42.502;26.014;2023-09-19T15:47:50;4.30;;;0.82;;
48423;SDS011;34232;42.502;26.014;2023-09-19T15:50:37;2.67;;;1.23;;
48423;SDS011;34232;42.502;26.014;2023-09-19T15:53:02;4.55;;;1.60;;
48423;SDS011;34232;42.502;26.014;2023-09-19T15:55:31;3.20;;;0.90;;
48423;SDS011;34232;42.502;26.014;2023-09-19T15:57:56;2.85;;;1.33;;
48423;SDS011;34232;42.502;26.014;2023-09-19T16:00:22;4.25;;;1.00;;
48423;SDS011;34232;42.502;26.014;2023-09-19T16:03:17;4.03;;;1.48;;
48423;SDS011;34232;42.502;26.014;2023-09-19T16:06:20;2.15;;;1.20;;
48423;SDS011;34232;42.502;26.014;2023-09-19T16:08:51;1.35;;;1.17;;
48423;SDS011;34232;42.502;26.014;2023-09-19T16:11:19;2.60;;;1.02;;
48423;SDS011;34232;42.502;26.014;2023-09-19T16:13:48;1.27;;;1.17;;
48423;SDS011;34232;42.502;26.014;2023-09-19T16:19:51;2.72;;;1.38;;
48423;SDS011;34232;42.502;26.014;2023-09-19T16:22:58;2.65;;;1.30;;
48423;SDS011;34232;42.502;26.014;2023-09-19T16:25:24;4.03;;;1.70;;
48423;SDS011;34232;42.502;26.014;2023-09-19T16:27:50;4.57;;;1.80;;
48423;SDS011;34232;42.502;26.014;2023-09-19T16:30:16;5.55;;;1.63;;
48423;SDS011;34232;42.502;26.014;2023-09-19T16:32:43;2.95;;;1.40;;
48423;SDS011;34232;42.502;26.014;2023-09-19T16:35:09;3.25;;;1.63;;
48423;SDS011;34232;42.502;26.014;2023-09-19T16:37:38;3.08;;;1.40;;
48423;SDS011;34232;42.502;26.014;2023-09-19T16:41:00;7.30;;;1.38;;
48423;SDS011;34232;42.502;26.014;2023-09-19T16:43:47;2.40;;;1.33;;
48423;SDS011;34232;42.502;26.014;2023-09-19T16:46:53;2.70;;;1.48;;
48423;SDS011;34232;42.502;26.014;2023-09-19T16:49:59;2.97;;;1.55;;
48423;SDS011;34232;42.502;26.014;2023-09-19T16:55:51;4.40;;;2.00;;
48423;SDS011;34232;42.502;26.014;2023-09-19T16:58:17;1.37;;;0.80;;
48423;SDS011;34232;42.502;26.014;2023-09-19T17:00:43;6.75;;;1.20;;
48423;SDS011;34232;42.502;26.014;2023-09-19T17:03:11;4.45;;;1.10;;
48423;SDS011;34232;42.502;26.014;2023-09-19T17:05:37;2.47;;;2.13;;
48423;SDS011;34232;42.502;26.014;2023-09-19T17:08:05;3.55;;;3.25;;
48423;SDS011;34232;42.502;26.014;2023-09-19T17:10:34;7.78;;;5.65;;
48423;SDS011;34232;42.502;26.014;2023-09-19T17:13:39;14.63;;;12.63;;
48423;SDS011;34232;42.502;26.014;2023-09-19T17:16:25;14.23;;;12.07;;
48423;SDS011;34232;42.502;26.014;2023-09-19T17:19:51;27.30;;;16.02;;
48423;SDS011;34232;42.502;26.014;2023-09-19T17:22:37;17.40;;;14.13;;
48423;SDS011;34232;42.502;26.014;2023-09-19T17:25:03;19.20;;;13.18;;
48423;SDS011;34232;42.502;26.014;2023-09-19T17:27:28;12.05;;;9.32;;
48423;SDS011;34232;42.502;26.014;2023-09-19T17:29:54;7.90;;;6.13;;
48423;SDS011;34232;42.502;26.014;2023-09-19T17:32:19;8.70;;;6.90;;
48423;SDS011;34232;42.502;26.014;2023-09-19T17:34:47;10.60;;;9.05;;
48423;SDS011;34232;42.502;26.014;2023-09-19T17:37:14;10.57;;;8.95;;
48423;SDS011;34232;42.502;26.014;2023-09-19T17:39:40;5.43;;;4.82;;
48423;SDS011;34232;42.502;26.014;2023-09-19T17:42:06;6.97;;;4.88;;
48423;SDS011;34232;42.502;26.014;2023-09-19T17:44:33;5.57;;;4.28;;
48423;SDS011;34232;42.502;26.014;2023-09-19T17:47:01;9.40;;;3.17;;
48423;SDS011;34232;42.502;26.014;2023-09-19T17:49:27;3.67;;;2.92;;
48423;SDS011;34232;42.502;26.014;2023-09-19T17:51:52;3.75;;;2.05;;
48423;SDS011;34232;42.502;26.014;2023-09-19T17:54:18;3.88;;;2.75;;
48423;SDS011;34232;42.502;26.014;2023-09-19T17:56:44;4.43;;;3.13;;
48423;SDS011;34232;42.502;26.014;2023-09-19T17:59:29;4.70;;;3.80;;
48423;SDS011;34232;42.502;26.014;2023-09-19T18:01:54;5.07;;;3.23;;
48423;SDS011;34232;42.502;26.014;2023-09-19T18:04:20;3.27;;;2.83;;
48423;SDS011;34232;42.502;26.014;2023-09-19T18:06:45;5.57;;;2.20;;
48423;SDS011;34232;42.502;26.014;2023-09-19T18:09:16;1.90;;;1.80;;
48423;SDS011;34232;42.502;26.014;2023-09-19T18:11:43;4.75;;;1.45;;
48423;SDS011;34232;42.502;26.014;2023-09-19T18:14:31;2.45;;;1.75;;
48423;SDS011;34232;42.502;26.014;2023-09-19T18:17:22;3.47;;;1.40;;
48423;SDS011;34232;42.502;26.014;2023-09-19T18:19:48;1.92;;;1.50;;
48423;SDS011;34232;42.502;26.014;2023-09-19T18:22:14;1.60;;;1.50;;
48423;SDS011;34232;42.502;26.014;2023-09-19T18:24:40;2.05;;;1.83;;
48423;SDS011;34232;42.502;26.014;2023-09-19T18:27:07;1.73;;;1.63;;
48423;SDS011;34232;42.502;26.014;2023-09-19T18:30:15;3.08;;;1.58;;
48423;SDS011;34232;42.502;26.014;2023-09-19T18:33:02;2.80;;;2.22;;
48423;SDS011;34232;42.502;26.014;2023-09-19T18:35:28;2.15;;;1.95;;
48423;SDS011;34232;42.502;26.014;2023-09-19T18:38:55;1.75;;;1.48;;
48423;SDS011;34232;42.502;26.014;2023-09-19T18:45:24;4.28;;;1.95;;
48423;SDS011;34232;42.502;26.014;2023-09-19T18:48:19;3.45;;;1.77;;
48423;SDS011;34232;42.502;26.014;2023-09-19T18:51:07;4.50;;;2.00;;
48423;SDS011;34232;42.502;26.014;2023-09-19T18:53:53;1.60;;;1.50;;
48423;SDS011;34232;42.502;26.014;2023-09-19T18:57:19;2.97;;;1.90;;
48423;SDS011;34232;42.502;26.014;2023-09-19T19:00:44;2.53;;;2.33;;
48423;SDS011;34232;42.502;26.014;2023-09-19T19:03:31;9.50;;;2.00;;
48423;SDS011;34232;42.502;26.014;2023-09-19T19:09:31;2.15;;;1.95;;
48423;SDS011;34232;42.502;26.014;2023-09-19T19:12:38;2.75;;;2.30;;
48423;SDS011;34232;42.502;26.014;2023-09-19T19:15:45;2.65;;;1.80;;
48423;SDS011;34232;42.502;26.014;2023-09-19T19:18:11;4.50;;;2.10;;
48423;SDS011;34232;42.502;26.014;2023-09-19T19:20:37;3.10;;;2.10;;
48423;SDS011;34232;42.502;26.014;2023-09-19T19:23:43;2.97;;;1.52;;
48423;SDS011;34232;42.502;26.014;2023-09-19T19:27:09;2.65;;;1.75;;
48423;SDS011;34232;42.502;26.014;2023-09-19T19:29:35;2.85;;;1.70;;
48423;SDS011;34232;42.502;26.014;2023-09-19T19:32:03;5.80;;;3.08;;
48423;SDS011;34232;42.502;26.014;2023-09-19T19:35:09;2.42;;;2.22;;
48423;SDS011;34232;42.502;26.014;2023-09-19T19:37:39;1.55;;;1.45;;
48423;SDS011;34232;42.502;26.014;2023-09-19T19:41:05;1.77;;;1.67;;
48423;SDS011;34232;42.502;26.014;2023-09-19T19:44:02;2.08;;;1.80;;
48423;SDS011;34232;42.502;26.014;2023-09-19T19:47:09;4.30;;;1.98;;
48423;SDS011;34232;42.502;26.014;2023-09-19T19:49:37;1.88;;;1.77;;
48423;SDS011;34232;42.502;26.014;2023-09-19T19:52:04;1.55;;;1.42;;
48423;SDS011;34232;42.502;26.014;2023-09-19T19:55:36;2.42;;;1.45;;
48423;SDS011;34232;42.502;26.014;2023-09-19T19:58:01;3.43;;;2.27;;
48423;SDS011;34232;42.502;26.014;2023-09-19T20:00:29;2.42;;;1.90;;
48423;SDS011;34232;42.502;26.014;2023-09-19T20:03:38;2.85;;;2.33;;
48423;SDS011;34232;42.502;26.014;2023-09-19T20:07:03;3.53;;;2.38;;
48423;SDS011;34232;42.502;26.014;2023-09-19T20:09:30;1.88;;;1.60;;
48423;SDS011;34232;42.502;26.014;2023-09-19T20:12:15;2.38;;;1.48;;
48423;SDS011;34232;42.502;26.014;2023-09-19T20:15:24;2.43;;;1.73;;
48423;SDS011;34232;42.502;26.014;2023-09-19T20:17:51;2.15;;;2.05;;
48423;SDS011;34232;42.502;26.014;2023-09-19T20:20:24;2.03;;;1.90;;
48423;SDS011;34232;42.502;26.014;2023-09-19T20:22:52;3.08;;;2.05;;
48423;SDS011;34232;42.502;26.014;2023-09-19T20:27:46;2.97;;;2.05;;
48423;SDS011;34232;42.502;26.014;2023-09-19T20:30:13;1.92;;;1.83;;
48423;SDS011;34232;42.502;26.014;2023-09-19T20:32:42;1.75;;;1.65;;
48423;SDS011;34232;42.502;26.014;2023-09-19T20:36:08;16.27;;;5.32;;
48423;SDS011;34232;42.502;26.014;2023-09-19T20:38:36;3.47;;;2.30;;
48423;SDS011;34232;42.502;26.014;2023-09-19T20:41:05;2.45;;;1.92;;
48423;SDS011;34232;42.502;26.014;2023-09-19T20:43:31;5.88;;;2.28;;
48423;SDS011;34232;42.502;26.014;2023-09-19T20:46:01;2.83;;;2.00;;
48423;SDS011;34232;42.502;26.014;2023-09-19T20:48:31;1.70;;;1.60;;
48423;SDS011;34232;42.502;26.014;2023-09-19T20:51:06;2.60;;;2.40;;
48423;SDS011;34232;42.502;26.014;2023-09-19T20:54:16;2.63;;;2.03;;
48423;SDS011;34232;42.502;26.014;2023-09-19T20:57:41;3.00;;;2.03;;
48423;SDS011;34232;42.502;26.014;2023-09-19T21:00:27;3.10;;;1.95;;
48423;SDS011;34232;42.502;26.014;2023-09-19T21:02:54;3.08;;;2.03;;
48423;SDS011;34232;42.502;26.014;2023-09-19T21:06:02;2.17;;;1.98;;
48423;SDS011;34232;42.502;26.014;2023-09-19T21:08:28;2.67;;;2.10;;
48423;SDS011;34232;42.502;26.014;2023-09-19T21:10:57;4.10;;;2.30;;
48423;SDS011;34232;42.502;26.014;2023-09-19T21:13:24;2.60;;;2.40;;
48423;SDS011;34232;42.502;26.014;2023-09-19T21:15:49;4.17;;;2.40;;
48423;SDS011;34232;42.502;26.014;2023-09-19T21:18:44;5.22;;;2.10;;
48423;SDS011;34232;42.502;26.014;2023-09-19T21:21:35;4.20;;;2.70;;